Time;durP1;ratioP1;P1;durP2;ratioP2;P2;SDS_P1;SDS_P2;PMS_P1;PMS_P2;Temp;Humidity;BMP_temperature;BMP_pressure;BME280_temperature;BME280_humidity;BME280_pressure;Samples;Min_cycle;Max_cycle;Signal;HPM_P1;HPM_P2
2022/12/27 00:02:12;;;;;;;15.20;11.20;;;;;;;8.20;98.13;100013.73;107674;1254;87064;-59
2022/12/27 00:04:50;;;;;;;14.00;10.70;;;;;;;8.20;98.15;100012.61;107653;1255;94734;-57
2022/12/27 00:07:34;;;;;;;13.20;10.50;;;;;;;8.21;98.19;100013.73;107665;1252;82403;-60
2022/12/27 00:10:11;;;;;;;13.90;10.50;;;;;;;8.21;98.10;100013.24;107662;1255;82551;-58
2022/12/27 00:12:50;;;;;;;14.30;10.30;;;;;;;8.20;98.03;100009.04;107683;1254;98105;-61
2022/12/27 00:15:33;;;;;;;16.20;11.50;;;;;;;8.14;98.16;100008.65;107680;1251;87074;-61
2022/12/27 00:18:11;;;;;;;15.00;11.60;;;;;;;8.13;98.08;100008.77;107614;1254;95086;-59
2022/12/27 00:20:48;;;;;;;17.40;12.50;;;;;;;8.14;98.02;100012.46;107659;1251;80524;-58
2022/12/27 00:23:23;;;;;;;13.80;11.90;;;;;;;8.18;98.17;100002.07;107629;1252;84818;-60
2022/12/27 00:26:08;;;;;;;16.80;12.50;;;;;;;8.21;98.16;100002.67;107647;1251;96810;-60
2022/12/27 00:28:46;;;;;;;15.90;12.90;;;;;;;8.24;98.24;100001.04;107669;1251;85918;-59
2022/12/27 00:31:21;;;;;;;15.60;12.00;;;;;;;8.28;98.13;100003.97;107690;1251;93508;-54
2022/12/27 00:34:04;;;;;;;14.60;12.50;;;;;;;8.30;98.15;100003.31;107655;1251;82605;-54
2022/12/27 00:36:39;;;;;;;15.60;12.50;;;;;;;8.26;98.04;100002.90;107673;1254;83323;-58
2022/12/27 00:39:13;;;;;;;16.50;12.00;;;;;;;8.23;98.16;99996.64;107695;1254;97794;-58
2022/12/27 00:41:52;;;;;;;14.80;11.80;;;;;;;8.24;98.16;99991.55;107718;1253;89200;-60
2022/12/27 00:44:32;;;;;;;15.80;12.50;;;;;;;8.28;98.16;100002.98;107674;1254;96653;-60
2022/12/27 00:47:12;;;;;;;15.10;11.50;;;;;;;8.30;98.15;100004.42;107673;1256;81902;-59
2022/12/27 00:49:47;;;;;;;14.20;11.10;;;;;;;8.33;98.21;100011.30;107657;1252;82942;-59
2022/12/27 00:52:24;;;;;;;14.10;11.60;;;;;;;8.33;98.21;100017.68;107620;1254;99308;-46
2022/12/27 00:55:01;;;;;;;15.40;11.10;;;;;;;8.36;98.22;100014.33;107692;1256;87430;-53
2022/12/27 00:57:40;;;;;;;14.40;11.50;;;;;;;8.40;98.22;100016.09;107633;1254;93872;-58
2022/12/27 01:00:17;;;;;;;14.80;9.90;;;;;;;8.41;98.15;100018.88;107627;1254;82815;-57
2022/12/27 01:02:55;;;;;;;13.30;10.60;;;;;;;8.42;98.17;100006.55;107678;1253;81350;-59
2022/12/27 01:05:32;;;;;;;12.50;10.60;;;;;;;8.40;98.14;100012.59;107644;1254;99203;-59
2022/12/27 01:08:10;;;;;;;13.50;10.60;;;;;;;8.41;98.12;100018.70;107708;1251;87387;-59
2022/12/27 01:10:53;;;;;;;12.30;9.80;;;;;;;8.42;98.08;100013.09;107668;1251;94421;-60
2022/12/27 01:13:31;;;;;;;11.70;10.00;;;;;;;8.42;98.00;100008.20;107639;1254;83061;-56
2022/12/27 01:16:15;;;;;;;14.10;10.50;;;;;;;8.42;97.95;100007.96;107668;1251;83740;-59
2022/12/27 01:18:54;;;;;;;11.60;9.50;;;;;;;8.45;97.87;100005.31;107673;1256;98149;-60
2022/12/27 01:21:30;;;;;;;12.30;9.60;;;;;;;8.45;97.92;100001.14;107706;1254;89250;-61
2022/12/27 01:24:07;;;;;;;11.30;8.90;;;;;;;8.48;97.90;100000.05;107620;1256;94256;-60
2022/12/27 01:26:47;;;;;;;11.40;9.50;;;;;;;8.51;97.92;100008.88;107675;1252;81137;-58
2022/12/27 01:29:24;;;;;;;12.70;9.60;;;;;;;8.53;97.86;100004.02;107663;1251;81821;-61
2022/12/27 01:32:02;;;;;;;12.00;9.40;;;;;;;8.48;97.83;100001.37;107576;1254;97894;-59
2022/12/27 01:34:39;;;;;;;12.20;8.60;;;;;;;8.46;97.90;99999.20;107671;1254;88834;-58
2022/12/27 01:37:21;;;;;;;11.10;8.90;;;;;;;8.47;97.88;99992.67;107619;1253;93838;-58
2022/12/27 01:40:03;;;;;;;10.30;8.60;;;;;;;8.52;97.80;100005.13;107624;1254;81851;-60
2022/12/27 01:42:56;;;;;;;11.90;9.10;;;;;;;8.53;97.81;100005.46;107625;1254;80366;-60
2022/12/27 01:45:39;;;;;;;11.40;9.20;;;;;;;8.52;97.67;100006.64;107701;1251;98590;-57
2022/12/27 01:48:21;;;;;;;14.00;9.10;;;;;;;8.51;97.70;100008.13;107681;1253;88773;-56
2022/12/27 01:51:04;;;;;;;13.30;8.20;;;;;;;8.53;97.64;100012.96;107664;1254;94728;-59
2022/12/27 01:53:48;;;;;;;9.50;7.60;;;;;;;8.54;97.55;100007.83;107657;1251;79680;-58
2022/12/27 01:56:28;;;;;;;9.40;7.70;;;;;;;8.50;97.53;100004.88;107653;1251;81481;-58
2022/12/27 01:59:07;;;;;;;9.00;8.00;;;;;;;8.49;97.56;100003.58;107655;1251;96946;-58
2022/12/27 02:01:46;;;;;;;12.90;8.30;;;;;;;8.45;97.59;100005.23;107656;1254;89247;-57
2022/12/27 02:04:28;;;;;;;10.20;7.30;;;;;;;8.42;97.61;100003.73;107725;1252;95204;-58
2022/12/27 02:07:10;;;;;;;9.40;7.30;;;;;;;8.45;97.59;100002.33;107664;1254;81010;-60
2022/12/27 02:09:55;;;;;;;9.10;6.60;;;;;;;8.44;97.58;99997.20;107696;1254;83177;-61
2022/12/27 02:12:30;;;;;;;12.20;7.30;;;;;;;8.44;97.60;99999.11;107664;1251;98894;-51
2022/12/27 02:15:09;;;;;;;10.60;7.00;;;;;;;8.41;97.54;99997.41;107677;1254;89642;-53
2022/12/27 02:17:52;;;;;;;9.00;6.70;;;;;;;8.40;97.64;100001.97;107658;1251;95057;-62
2022/12/27 02:20:32;;;;;;;8.80;6.20;;;;;;;8.41;97.64;99998.04;107662;1251;82022;-60
2022/12/27 02:24:06;;;;;;;11.00;6.50;;;;;;;8.42;97.57;99999.89;107680;1251;81345;-59
2022/12/27 02:26:55;;;;;;;7.40;5.90;;;;;;;8.41;97.64;100001.27;107626;1251;97344;-61
2022/12/27 02:30:01;;;;;;;7.10;5.50;;;;;;;8.43;97.37;99998.24;107644;1254;87568;-59
2022/12/27 02:32:47;;;;;;;8.10;5.90;;;;;;;8.41;97.53;99996.88;107657;1254;95001;-59
2022/12/27 02:35:34;;;;;;;9.80;6.40;;;;;;;8.39;97.47;99997.98;107644;1251;82015;-61
2022/12/27 02:38:18;;;;;;;9.00;6.20;;;;;;;8.38;97.44;100000.73;107674;1252;82502;-60
2022/12/27 02:53:06;;;;;;;7.00;5.60;;;;;;;8.39;97.20;100011.45;107734;1255;82554;-61
2022/12/27 02:59:24;;;;;;;8.00;6.40;;;;;;;8.29;97.28;100026.94;107691;1255;88779;-61
2022/12/27 03:05:26;;;;;;;6.70;5.70;;;;;;;8.18;97.32;100029.71;107633;1251;82043;-60
2022/12/27 03:08:11;;;;;;;9.60;6.30;;;;;;;8.16;97.19;100044.53;107651;1251;82434;-59
2022/12/27 03:17:01;;;;;;;4.60;3.10;;;;;;;7.60;96.45;100087.15;107646;1255;94508;-61
2022/12/27 03:25:48;;;;;;;4.50;1.30;;;;;;;6.92;95.68;100130.45;107666;1251;100040;-61
2022/12/27 03:34:34;;;;;;;4.20;1.10;;;;;;;6.11;94.45;100162.34;107703;1251;80198;-62
2022/12/27 03:40:18;;;;;;;3.20;0.90;;;;;;;5.84;94.11;100165.76;107679;1251;98480;-59
2022/12/27 03:43:13;;;;;;;5.10;1.10;;;;;;;5.76;94.06;100174.84;107685;1254;86533;-58
2022/12/27 03:49:20;;;;;;;4.00;1.50;;;;;;;5.66;93.90;100183.78;107646;1251;80682;-58
2022/12/27 03:52:02;;;;;;;5.20;1.30;;;;;;;5.63;93.61;100189.27;107658;1254;83398;-60
2022/12/27 03:54:45;;;;;;;4.50;1.20;;;;;;;5.53;93.90;100195.27;107635;1255;96493;-60
2022/12/27 03:57:31;;;;;;;5.00;1.40;;;;;;;5.44;94.17;100201.16;107667;1256;88692;-60
2022/12/27 04:00:11;;;;;;;6.00;1.00;;;;;;;5.46;93.83;100215.13;107623;1254;94996;-57
2022/12/27 04:02:50;;;;;;;4.00;1.20;;;;;;;5.30;93.81;100222.39;107624;1254;80784;-58
2022/12/27 04:05:30;;;;;;;6.00;1.10;;;;;;;5.28;93.79;100232.33;107641;1251;83416;-58
2022/12/27 04:34:47;;;;;;;7.90;2.00;;;;;;;4.68;93.60;100269.02;107617;1255;82732;-60
2022/12/27 04:37:35;;;;;;;3.80;1.00;;;;;;;4.66;93.58;100271.23;107655;1254;98218;-58
2022/12/27 04:55:17;;;;;;;7.20;1.60;;;;;;;4.67;93.66;100298.95;107646;1255;89147;-44
2022/12/27 04:57:55;;;;;;;6.00;1.20;;;;;;;4.59;93.62;100310.27;107666;1254;95790;-59
2022/12/27 05:03:46;;;;;;;6.90;1.00;;;;;;;4.54;93.70;100320.79;107278;1262;82640;-59
2022/12/27 05:06:21;;;;;;;5.90;1.60;;;;;;;4.52;93.58;100323.25;107300;1257;98520;-58
2022/12/27 05:14:46;;;;;;;6.90;1.70;;;;;;;4.34;93.56;100335.79;107703;1254;81157;-53
2022/12/27 05:17:29;;;;;;;5.90;1.90;;;;;;;4.27;93.45;100339.93;107682;1251;81088;-57
2022/12/27 05:20:07;;;;;;;6.80;1.80;;;;;;;4.11;93.54;100345.04;107651;1255;98968;-58
2022/12/27 05:25:46;;;;;;;7.20;1.50;;;;;;;3.94;93.55;100348.80;107626;1255;94895;-54
2022/12/27 05:28:23;;;;;;;8.40;1.50;;;;;;;3.86;93.70;100355.71;107325;1254;443822;-57
2022/12/27 05:31:02;;;;;;;8.50;1.60;;;;;;;3.80;93.80;100359.84;107674;1254;82868;-58
2022/12/27 05:33:37;;;;;;;9.80;2.80;;;;;;;3.76;93.81;100361.70;107620;1251;97436;-57
2022/12/27 05:36:13;;;;;;;6.20;2.00;;;;;;;3.71;93.62;100362.86;107651;1256;89128;-59
2022/12/27 05:38:52;;;;;;;11.80;2.00;;;;;;;3.63;93.73;100362.25;107644;1251;93328;-58
2022/12/27 05:41:34;;;;;;;6.90;2.70;;;;;;;3.51;93.68;100371.67;107603;1252;77882;-52
2022/12/27 05:44:12;;;;;;;;;;;;;;;3.39;93.58;100381.60;107661;1251;82197;-53
2022/12/27 05:46:55;;;;;;;7.90;2.10;;;;;;;3.33;93.71;100387.37;107666;1254;99557;-60
2022/12/27 05:49:38;;;;;;;8.70;2.10;;;;;;;3.32;93.94;100393.11;107700;1251;89036;-57
2022/12/27 05:52:16;;;;;;;9.00;3.10;;;;;;;3.36;93.92;100399.65;107699;1252;93515;-58
2022/12/27 05:54:51;;;;;;;9.40;3.10;;;;;;;3.40;94.14;100397.70;107724;1254;79802;-60
2022/12/27 05:57:31;;;;;;;7.90;2.80;;;;;;;3.40;94.06;100397.50;107700;1256;81670;-59
2022/12/27 06:00:09;;;;;;;6.10;2.40;;;;;;;3.37;93.96;100400.15;107737;1251;99269;-59
2022/12/27 06:02:50;;;;;;;11.60;2.00;;;;;;;3.27;94.07;100409.64;107712;1255;89585;-57
2022/12/27 06:05:32;;;;;;;7.30;1.70;;;;;;;3.20;93.78;100416.30;107665;1255;96129;-59
2022/12/27 06:08:20;;;;;;;7.40;1.40;;;;;;;3.09;93.74;100423.02;107645;1256;81922;-59
2022/12/27 06:11:07;;;;;;;8.60;2.10;;;;;;;3.03;93.89;100428.39;107678;1256;80639;-60
2022/12/27 06:13:54;;;;;;;8.20;1.60;;;;;;;2.95;93.82;100431.20;107643;1251;98434;-59
2022/12/27 06:16:29;;;;;;;4.90;1.50;;;;;;;2.90;93.87;100435.92;107628;1251;88212;-53
2022/12/27 06:19:09;;;;;;;8.90;1.50;;;;;;;2.90;93.83;100441.50;107667;1256;94342;-56
2022/12/27 06:21:47;;;;;;;8.10;1.70;;;;;;;2.87;94.07;100446.72;107649;1256;80583;-57
2022/12/27 06:24:29;;;;;;;8.00;2.00;;;;;;;2.85;94.11;100451.41;107661;1251;83003;-59
2022/12/27 06:27:14;;;;;;;6.20;2.00;;;;;;;2.80;94.13;100450.62;107647;1251;98671;-60
2022/12/27 06:29:56;;;;;;;10.00;2.50;;;;;;;2.79;94.16;100451.21;107627;1256;88103;-58
2022/12/27 06:32:37;;;;;;;15.80;2.90;;;;;;;2.79;93.90;100451.73;107632;1255;93689;-59
2022/12/27 06:35:12;;;;;;;8.00;2.20;;;;;;;2.77;93.92;100459.56;107644;1251;81449;-59
2022/12/27 06:37:50;;;;;;;8.20;2.10;;;;;;;2.75;93.92;100466.51;107675;1251;81058;-51
2022/12/27 06:40:32;;;;;;;10.10;2.60;;;;;;;2.76;93.98;100464.34;107646;1251;97950;-57
2022/12/27 06:43:10;;;;;;;6.00;1.80;;;;;;;2.75;93.98;100469.59;107676;1254;89164;-57
2022/12/27 06:45:46;;;;;;;13.30;3.80;;;;;;;2.73;94.06;100473.61;107622;1251;96594;-56
2022/12/27 06:48:26;;;;;;;8.80;2.00;;;;;;;2.74;94.05;100476.73;107700;1256;79247;-60
2022/12/27 06:51:06;;;;;;;9.90;2.10;;;;;;;2.76;93.94;100483.49;107703;1251;83036;-60
2022/12/27 06:53:48;;;;;;;9.70;1.90;;;;;;;2.75;93.82;100484.81;107648;1251;97811;-58
2022/12/27 06:56:24;;;;;;;8.00;1.60;;;;;;;2.68;93.83;100485.44;107641;1251;88480;-60
2022/12/27 06:59:04;;;;;;;10.80;2.40;;;;;;;2.68;93.79;100486.73;107638;1251;95137;-59
2022/12/27 07:01:50;;;;;;;8.80;2.10;;;;;;;2.67;93.80;100495.56;107599;1256;79571;-55
2022/12/27 07:04:34;;;;;;;8.80;1.70;;;;;;;2.66;94.01;100500.62;107673;1251;82695;-59
2022/12/27 07:07:16;;;;;;;10.70;2.20;;;;;;;2.66;93.94;100508.63;107672;1256;98092;-58
2022/12/27 07:09:56;;;;;;;7.90;2.40;;;;;;;2.69;93.92;100514.70;107631;1254;87686;-60
2022/12/27 07:12:36;;;;;;;10.90;2.20;;;;;;;2.74;94.03;100521.07;107648;1257;94625;-58
2022/12/27 07:15:12;;;;;;;9.40;2.60;;;;;;;2.74;93.97;100523.70;107634;1251;79868;-45
2022/12/27 07:17:51;;;;;;;10.70;2.30;;;;;;;2.76;93.86;100527.29;107668;1256;82734;-57
2022/12/27 07:20:33;;;;;;;8.10;2.00;;;;;;;2.75;93.92;100534.25;107643;1251;96418;-60
2022/12/27 07:23:16;;;;;;;8.30;1.80;;;;;;;2.73;93.95;100536.55;107704;1251;88439;-61
2022/12/27 07:25:54;;;;;;;9.10;1.60;;;;;;;2.77;94.00;100536.73;107678;1251;95734;-60
2022/12/27 07:28:29;;;;;;;8.20;1.70;;;;;;;2.86;94.17;100543.58;107658;1251;81618;-58
2022/12/27 07:31:08;;;;;;;9.50;2.00;;;;;;;3.05;94.34;100550.48;107674;1251;82982;-60
2022/12/27 07:33:51;;;;;;;7.40;1.60;;;;;;;3.24;94.47;100551.55;107683;1251;97904;-46
2022/12/27 07:36:34;;;;;;;9.90;2.10;;;;;;;3.44;94.32;100557.38;107679;1251;88045;-60
2022/12/27 07:39:12;;;;;;;7.80;1.70;;;;;;;3.57;94.22;100562.52;107649;1251;93890;-57
2022/12/27 07:41:55;;;;;;;11.60;2.10;;;;;;;3.67;93.99;100561.30;107696;1251;79218;-58
2022/12/27 07:44:31;;;;;;;7.90;2.20;;;;;;;3.78;94.03;100562.76;107643;1256;82647;-49
2022/12/27 07:47:10;;;;;;;12.50;2.10;;;;;;;3.88;93.82;100566.95;107640;1251;97917;-62
2022/12/27 07:49:52;;;;;;;9.90;2.30;;;;;;;3.90;93.76;100570.02;107636;1255;89274;-59
2022/12/27 07:52:36;;;;;;;10.60;2.10;;;;;;;4.00;93.65;100575.95;107588;1251;95517;-60
2022/12/27 07:55:16;;;;;;;8.70;2.80;;;;;;;4.14;93.68;100581.95;107614;1251;81006;-60
2022/12/27 07:58:01;;;;;;;8.60;1.80;;;;;;;4.25;93.50;100585.38;107639;1256;82889;-60
2022/12/27 08:00:38;;;;;;;8.90;2.10;;;;;;;4.28;93.29;100580.23;107678;1251;99117;-60
2022/12/27 08:03:16;;;;;;;10.90;2.90;;;;;;;4.34;93.57;100579.02;107657;1251;87324;-58
2022/12/27 08:05:55;;;;;;;10.90;2.20;;;;;;;4.38;93.59;100588.08;107638;1251;95245;-59
2022/12/27 08:08:38;;;;;;;13.20;3.00;;;;;;;4.41;93.61;100596.86;107669;1251;77533;-64
2022/12/27 08:11:14;;;;;;;11.70;2.70;;;;;;;4.51;93.51;100605.84;107741;1251;82730;-64
2022/12/27 08:13:50;;;;;;;11.80;3.00;;;;;;;4.56;93.49;100607.73;107639;1256;97872;-64
2022/12/27 08:16:32;;;;;;;8.30;2.50;;;;;;;4.62;93.33;100610.18;107706;1251;87651;-66
2022/12/27 08:19:11;;;;;;;8.70;2.70;;;;;;;4.67;93.36;100618.77;107657;1251;94640;-64
2022/12/27 08:21:54;;;;;;;7.40;2.50;;;;;;;4.72;93.30;100617.53;107664;1251;81808;-65
2022/12/27 08:24:40;;;;;;;11.60;2.70;;;;;;;4.71;93.29;100620.50;107708;1251;79882;-65
2022/12/27 08:27:22;;;;;;;12.60;2.70;;;;;;;4.70;92.92;100624.73;107703;1251;99592;-63
2022/12/27 08:30:02;;;;;;;9.30;2.30;;;;;;;4.69;92.95;100626.10;107632;1255;88444;-64
2022/12/27 08:32:49;;;;;;;9.40;2.20;;;;;;;4.78;93.14;100624.48;107601;1251;94844;-66
2022/12/27 08:35:29;;;;;;;10.70;2.30;;;;;;;4.89;92.99;100625.77;107625;1251;79698;-63
2022/12/27 08:38:06;;;;;;;10.80;2.30;;;;;;;4.93;92.79;100633.21;107620;1256;82753;-63
2022/12/27 08:40:46;;;;;;;9.10;2.80;;;;;;;4.86;92.92;100635.13;107601;1255;99907;-60
2022/12/27 08:43:24;;;;;;;9.40;3.30;;;;;;;4.78;92.80;100642.74;107669;1251;89218;-60
2022/12/27 08:46:07;;;;;;;16.60;2.50;;;;;;;4.78;92.92;100636.45;107634;1251;95575;-61
2022/12/27 08:48:47;;;;;;;10.00;2.40;;;;;;;4.84;92.88;100643.59;107667;1251;82304;-61
2022/12/27 08:51:22;;;;;;;7.90;2.10;;;;;;;4.89;92.60;100648.98;107705;1251;83416;-61
2022/12/27 08:54:04;;;;;;;8.90;2.50;;;;;;;4.90;92.54;100649.23;107697;1251;97598;-60
2022/12/27 08:56:44;;;;;;;7.70;2.40;;;;;;;4.88;92.70;100654.77;107657;1251;88420;-63
2022/12/27 08:59:22;;;;;;;11.10;3.10;;;;;;;4.91;92.76;100657.69;107705;1251;94881;-58
2022/12/27 09:02:04;;;;;;;14.70;2.50;;;;;;;4.90;92.59;100661.85;107686;1251;81177;-57
2022/12/27 09:04:47;;;;;;;9.70;2.30;;;;;;;4.86;92.42;100668.72;107609;1254;83277;-60
2022/12/27 09:07:27;;;;;;;8.40;2.50;;;;;;;4.84;92.38;100676.78;107598;1251;97141;-60
2022/12/27 09:10:06;;;;;;;11.10;2.60;;;;;;;4.77;92.30;100679.70;107630;1251;88559;-60
2022/12/27 09:12:44;;;;;;;8.50;2.10;;;;;;;4.75;92.20;100678.10;107623;1251;93537;-60
2022/12/27 09:15:19;;;;;;;11.70;2.30;;;;;;;4.74;92.17;100676.10;107677;1251;79453;-59
2022/12/27 09:18:05;;;;;;;10.80;2.40;;;;;;;4.75;92.15;100680.41;107650;1251;82963;-59
2022/12/27 09:20:46;;;;;;;11.10;3.30;;;;;;;4.78;92.18;100681.10;107620;1255;98553;-60
2022/12/27 09:23:24;;;;;;;7.60;2.00;;;;;;;4.73;92.31;100684.95;107601;1251;88936;-60
2022/12/27 09:26:15;;;;;;;7.30;2.60;;;;;;;4.74;92.42;100688.08;107655;1251;92212;-60
2022/12/27 09:28:51;;;;;;;10.50;2.80;;;;;;;4.76;92.29;100679.15;107609;1251;80545;-58
2022/12/27 09:31:32;;;;;;;8.00;2.30;;;;;;;4.86;92.57;100675.45;107640;1251;81242;-61
2022/12/27 09:34:07;;;;;;;12.90;2.90;;;;;;;5.02;92.48;100682.65;107610;1251;98071;-57
2022/12/27 09:36:47;;;;;;;11.40;2.60;;;;;;;5.12;92.32;100677.04;107679;1251;87405;-61
2022/12/27 09:39:21;;;;;;;10.70;2.40;;;;;;;5.24;92.47;100682.30;107654;1251;94511;-60
2022/12/27 09:42:11;;;;;;;8.10;2.40;;;;;;;5.35;92.51;100682.43;107609;1251;82227;-61
2022/12/27 09:44:58;;;;;;;13.00;2.80;;;;;;;5.45;92.22;100685.64;107686;1257;82526;-60
2022/12/27 09:47:47;;;;;;;11.30;2.70;;;;;;;5.46;91.89;100687.07;107670;1251;98536;-59
2022/12/27 09:50:32;;;;;;;10.40;2.90;;;;;;;5.47;92.00;100691.66;107680;1251;89095;-60
2022/12/27 09:53:20;;;;;;;11.40;2.70;;;;;;;5.49;91.76;100693.30;107607;1251;95100;-61
2022/12/27 09:55:59;;;;;;;7.70;2.60;;;;;;;5.49;91.64;100691.42;107690;1251;81393;-62
2022/12/27 09:58:47;;;;;;;8.60;2.30;;;;;;;5.42;91.64;100687.92;107652;1251;82040;-63
2022/12/27 10:01:32;;;;;;;12.30;2.50;;;;;;;5.41;91.35;100691.52;107694;1251;98028;-61
2022/12/27 10:04:15;;;;;;;9.10;3.40;;;;;;;5.37;91.40;100690.27;107651;1251;89152;-59
2022/12/27 10:07:13;;;;;;;10.00;2.60;;;;;;;5.40;91.20;100695.77;107669;1255;93286;-61
2022/12/27 10:10:05;;;;;;;13.40;3.40;;;;;;;5.44;91.20;100699.70;107690;1251;79740;-59
2022/12/27 10:13:13;;;;;;;8.80;3.00;;;;;;;5.47;91.07;100697.33;107690;1257;82937;-61
2022/12/27 10:16:07;;;;;;;10.60;3.30;;;;;;;5.55;91.12;100704.42;107683;1251;97897;-60
2022/12/27 10:19:01;;;;;;;11.30;2.60;;;;;;;5.64;90.84;100705.73;107618;1251;89437;-60
2022/12/27 10:21:52;;;;;;;10.10;3.10;;;;;;;5.70;90.79;100704.85;107598;1251;93716;-60
2022/12/27 10:24:41;;;;;;;10.60;2.70;;;;;;;5.73;90.41;100699.93;107649;1251;81628;-60
2022/12/27 10:27:26;;;;;;;7.80;2.70;;;;;;;5.69;90.56;100701.06;107673;1251;83056;-60
2022/12/27 10:30:17;;;;;;;9.90;2.90;;;;;;;5.70;90.48;100696.16;107651;1251;98190;-63
2022/12/27 10:32:58;;;;;;;9.50;2.70;;;;;;;5.80;90.28;100697.84;107610;1251;88368;-60
2022/12/27 10:35:48;;;;;;;8.70;2.90;;;;;;;5.85;90.13;100697.50;107636;1251;94173;-60
2022/12/27 10:38:24;;;;;;;8.40;2.70;;;;;;;5.81;90.07;100698.31;107622;1251;78979;-61
2022/12/27 10:41:18;;;;;;;9.70;2.70;;;;;;;5.89;90.03;100698.73;107683;1251;82998;-60
2022/12/27 10:43:57;;;;;;;7.90;2.30;;;;;;;5.98;89.88;100702.98;107641;1251;98856;-61
2022/12/27 10:46:37;;;;;;;10.40;2.80;;;;;;;5.99;89.71;100705.11;107639;1251;88038;-61
2022/12/27 10:49:26;;;;;;;7.90;2.30;;;;;;;5.92;89.33;100709.02;107611;1251;92660;-61
2022/12/27 10:52:18;;;;;;;10.20;2.80;;;;;;;5.99;89.34;100711.38;107648;1251;82190;-56
2022/12/27 10:55:00;;;;;;;10.80;3.20;;;;;;;6.01;88.83;100709.49;107704;1251;83435;-59
2022/12/27 10:57:36;;;;;;;11.60;2.70;;;;;;;5.98;88.81;100709.86;107649;1251;98269;-60
2022/12/27 11:00:26;;;;;;;8.10;3.10;;;;;;;5.95;88.46;100708.68;107697;1251;87489;-60
2022/12/27 11:03:03;;;;;;;8.90;2.60;;;;;;;5.89;88.46;100707.30;107680;1251;94806;-59
2022/12/27 11:05:41;;;;;;;8.80;2.50;;;;;;;5.88;88.64;100699.20;107689;1251;79158;-60
2022/12/27 11:08:29;;;;;;;10.20;2.90;;;;;;;5.82;88.71;100696.52;107721;1251;81154;-60
2022/12/27 11:11:24;;;;;;;8.00;3.00;;;;;;;5.80;88.60;100696.38;107710;1251;99796;-55
2022/12/27 11:14:16;;;;;;;8.40;3.50;;;;;;;5.79;88.47;100693.27;107687;1251;87487;-57
2022/12/27 11:16:54;;;;;;;9.70;3.50;;;;;;;5.83;88.68;100697.73;107695;1251;95176;-61
2022/12/27 11:19:30;;;;;;;12.10;3.20;;;;;;;5.89;88.62;100695.88;107672;1251;78674;-59
2022/12/27 11:22:09;;;;;;;10.70;3.90;;;;;;;5.96;88.54;100698.94;107696;1251;81516;-60
2022/12/27 11:24:54;;;;;;;9.40;2.80;;;;;;;5.96;88.18;100704.70;107671;1251;98515;-61
2022/12/27 11:27:33;;;;;;;12.90;3.50;;;;;;;6.01;87.93;100706.46;107682;1251;88527;-60
2022/12/27 11:30:20;;;;;;;11.10;3.20;;;;;;;6.07;87.53;100706.80;107599;1251;96340;-61
2022/12/27 11:33:05;;;;;;;8.70;3.00;;;;;;;5.99;87.05;100707.75;107696;1251;78469;-60
2022/12/27 11:35:51;;;;;;;9.20;3.20;;;;;;;5.98;86.81;100713.27;107630;1251;81269;-61
2022/12/27 11:38:30;;;;;;;7.10;2.90;;;;;;;5.93;86.46;100721.42;107590;1251;99370;-61
2022/12/27 11:41:13;;;;;;;7.30;2.40;;;;;;;5.92;86.61;100719.48;107612;1251;87267;-61
2022/12/27 11:43:53;;;;;;;5.20;2.60;;;;;;;5.95;86.11;100725.86;107609;1251;94803;-53
2022/12/27 11:46:37;;;;;;;9.20;2.90;;;;;;;6.10;86.28;100734.20;107654;1251;79298;-60
2022/12/27 11:49:22;;;;;;;7.20;2.60;;;;;;;6.17;86.08;100737.93;107618;1251;81885;-61
2022/12/27 11:52:33;;;;;;;10.30;3.50;;;;;;;6.10;86.03;100736.91;107646;1251;98051;-61
2022/12/27 11:55:47;;;;;;;8.90;2.60;;;;;;;5.96;85.66;100741.98;107681;1251;88324;-60
2022/12/27 11:59:04;;;;;;;11.10;2.60;;;;;;;5.81;85.10;100741.52;107711;1255;94743;-61
2022/12/27 12:02:08;;;;;;;8.40;2.40;;;;;;;5.75;85.23;100751.45;107670;1251;78730;-61
2022/12/27 12:05:44;;;;;;;7.30;2.20;;;;;;;5.70;85.20;100755.09;107646;1251;83239;-60
2022/12/27 12:09:23;;;;;;;10.50;3.30;;;;;;;5.65;85.23;100758.99;107638;1251;99474;-60
2022/12/27 12:12:35;;;;;;;6.70;2.70;;;;;;;5.61;85.31;100758.33;107664;1251;88279;-60
2022/12/27 12:16:19;;;;;;;9.80;2.90;;;;;;;5.65;85.28;100762.23;107588;1251;94151;-61
2022/12/27 12:19:21;;;;;;;7.90;3.20;;;;;;;5.65;85.21;100761.64;107106;1257;79491;-60
2022/12/27 12:22:17;;;;;;;7.10;3.40;;;;;;;5.63;85.32;100766.70;107642;1251;82715;-51
2022/12/27 12:25:34;;;;;;;9.40;2.90;;;;;;;5.58;85.08;100771.14;107614;1251;99421;-51
2022/12/27 12:28:43;;;;;;;11.10;3.10;;;;;;;5.50;85.14;100778.91;107627;1251;87629;-57
2022/12/27 12:31:42;;;;;;;7.30;3.00;;;;;;;5.38;85.01;100779.45;107693;1251;94388;-60
2022/12/27 12:34:45;;;;;;;8.90;3.20;;;;;;;5.30;85.00;100783.70;107624;1251;81354;-59
2022/12/27 12:37:40;;;;;;;7.00;2.30;;;;;;;5.19;84.93;100783.64;107649;1251;81410;-61
2022/12/27 12:40:50;;;;;;;8.80;2.50;;;;;;;5.16;84.74;100787.71;107708;1251;98263;-61
2022/12/27 12:43:45;;;;;;;7.80;2.80;;;;;;;5.07;84.73;100782.80;107661;1256;89777;-60
2022/12/27 12:46:28;;;;;;;;;;;;;;;5.01;84.97;100787.38;107681;1256;94919;-60
2022/12/27 12:49:30;;;;;;;7.70;2.70;;;;;;;4.97;84.81;100790.73;107664;1256;78289;-64
2022/12/27 12:52:47;;;;;;;7.20;2.40;;;;;;;4.92;84.87;100794.10;107686;1251;82680;-50
2022/12/27 12:55:40;;;;;;;8.10;2.80;;;;;;;4.87;84.70;100799.16;107610;1251;98650;-60
2022/12/27 12:58:43;;;;;;;6.20;2.40;;;;;;;4.80;84.59;100796.86;107645;1251;87842;-55
2022/12/27 13:01:41;;;;;;;8.30;2.70;;;;;;;4.74;84.79;100796.20;107626;1251;93572;-61
2022/12/27 13:04:39;;;;;;;8.70;2.70;;;;;;;4.76;84.89;100793.63;107665;1251;78844;-60
2022/12/27 13:07:48;;;;;;;7.00;2.90;;;;;;;4.83;84.77;100794.59;107647;1251;81628;-60
2022/12/27 13:10:53;;;;;;;11.20;3.40;;;;;;;4.84;84.99;100791.27;107639;1251;98583;-60
2022/12/27 13:13:44;;;;;;;11.20;3.60;;;;;;;4.77;85.21;100789.44;107661;1251;88896;-60
2022/12/27 13:16:34;;;;;;;12.90;4.10;;;;;;;4.81;84.89;100786.40;107709;1251;95114;-60
2022/12/27 13:19:33;;;;;;;20.50;5.00;;;;;;;4.78;84.91;100784.34;107654;1251;80684;-55
2022/12/27 13:22:28;;;;;;;9.70;4.10;;;;;;;4.74;85.09;100787.73;107684;1251;82599;-61
2022/12/27 13:25:28;;;;;;;10.10;4.30;;;;;;;4.70;85.19;100791.73;107681;1251;99282;-61
2022/12/27 13:28:33;;;;;;;9.80;4.60;;;;;;;4.69;85.13;100795.35;107352;1251;471135;-61
2022/12/27 13:31:22;;;;;;;6.40;3.50;;;;;;;4.67;85.38;100798.71;107644;1254;95425;-60
2022/12/27 13:34:12;;;;;;;11.30;5.30;;;;;;;4.65;85.40;100801.25;107640;1254;79098;-62
2022/12/27 13:37:05;;;;;;;8.90;3.70;;;;;;;4.64;85.52;100813.52;107735;1253;80717;-60
2022/12/27 13:40:03;;;;;;;10.60;4.10;;;;;;;4.60;85.61;100822.58;107655;1255;100851;-62
2022/12/27 13:43:06;;;;;;;10.40;4.10;;;;;;;4.58;85.58;100826.92;107691;1251;86964;-62
2022/12/27 13:46:05;;;;;;;13.40;5.00;;;;;;;4.55;85.55;100829.83;107592;1254;94553;-59
2022/12/27 13:49:07;;;;;;;12.70;5.70;;;;;;;4.45;85.71;100827.59;107632;1251;79916;-61
2022/12/27 13:51:47;;;;;;;10.50;3.90;;;;;;;4.43;85.78;100830.13;107682;1251;82915;-61
2022/12/27 13:55:01;;;;;;;10.40;4.60;;;;;;;4.41;85.88;100832.91;107664;1253;96553;-58
2022/12/27 13:58:25;;;;;;;10.80;4.40;;;;;;;4.45;86.19;100828.98;107704;1251;88095;-60
2022/12/27 14:01:19;;;;;;;12.00;4.10;;;;;;;4.44;86.12;100832.46;107710;1253;93887;-62
2022/12/27 14:04:15;;;;;;;12.00;4.30;;;;;;;4.46;85.87;100835.73;107601;1251;79063;-63
2022/12/27 14:07:27;;;;;;;11.30;5.00;;;;;;;4.49;85.99;100832.95;107662;1254;83225;-64
2022/12/27 14:10:18;;;;;;;8.20;3.80;;;;;;;4.45;85.97;100829.87;107704;1251;100044;-64
2022/12/27 14:13:06;;;;;;;8.30;3.70;;;;;;;4.40;86.13;100828.57;107638;1251;88829;-65
2022/12/27 14:16:14;;;;;;;10.80;3.90;;;;;;;4.35;85.77;100826.18;107662;1251;94185;-63
2022/12/27 14:19:19;;;;;;;7.90;3.90;;;;;;;4.36;85.94;100830.91;107625;1251;78354;-64
2022/12/27 14:22:42;;;;;;;10.80;3.90;;;;;;;4.37;85.96;100830.10;107605;1251;82075;-64
2022/12/27 14:26:19;;;;;;;8.60;3.80;;;;;;;4.39;85.95;100828.13;107599;1251;97571;-60